Terminal Aerodrome Forecast
Issued by NWS Mobile, AL

Home | Current Version | Previous Version | Text Only | Print | Product List | Glossary On
Versions: 1 2 3 4 5 6 7 8 9 10 11 12 13 14 15 16 17 18 19 20 21 22 23 24 25 26 27 28 29 30 31 32 33 34 35 36 37 38 39 40
131
FTUS44 KMOB 200530
TAFMOB
TAF
KMOB 200530Z 2006/2106 14013KT P6SM BKN011 OVC021
     FM200800 14005KT 4SM BR OVC010
     FM201500 13012KT P6SM OVC015
     FM201800 15017KT P6SM VCSH BKN025
     FM210300 13009KT 4SM BR OVC010=

USA.gov is the U.S. government's official web portal to all federal, state and local government web resources and services.